Time;durP1;ratioP1;P1;durP2;ratioP2;P2;SDS_P1;SDS_P2;PMS_P1;PMS_P2;Temp;Humidity;BMP_temperature;BMP_pressure;BME280_temperature;BME280_humidity;BME280_pressure;Samples;Min_cycle;Max_cycle;Signal;HPM_P1;HPM_P2
2022/04/07 00:00:28;;;;;;;7.28;6.40;;;;;;;8.41;88.49;98900.81;2078819;28;45240;-65
2022/04/07 00:01:29;;;;;;;6.50;5.90;;;;;;;8.41;88.19;98898.13;2078962;28;45148;-65
2022/04/07 00:02:31;;;;;;;10.55;6.65;;;;;;;8.41;87.49;98892.81;2079609;28;34121;-65
2022/04/07 00:03:33;;;;;;;6.70;6.10;;;;;;;8.43;87.97;98894.56;2078937;28;45430;-65
2022/04/07 00:04:35;;;;;;;6.53;5.90;;;;;;;8.44;87.49;98891.00;2079336;28;43651;-65
2022/04/07 00:05:36;;;;;;;6.10;5.57;;;;;;;8.43;87.67;98879.44;2079422;28;43227;-65
2022/04/07 00:06:38;;;;;;;6.55;5.47;;;;;;;8.44;87.71;98886.50;2078849;28;46192;-65
2022/04/07 00:07:40;;;;;;;7.80;6.00;;;;;;;8.45;86.79;98876.69;2079765;28;42358;-65
2022/04/07 00:08:42;;;;;;;5.72;5.25;;;;;;;8.48;86.08;98881.91;2079134;28;45597;-65
2022/04/07 00:09:43;;;;;;;6.60;5.35;;;;;;;8.49;86.93;98883.59;2078516;28;46059;-65
2022/04/07 00:10:47;;;;;;;5.45;4.95;;;;;;;8.50;86.47;98874.69;2079852;28;20925;-65
2022/04/07 00:11:49;;;;;;;6.05;4.78;;;;;;;8.50;86.40;98875.53;2078902;28;45603;-65
2022/04/07 00:12:52;;;;;;;5.18;4.68;;;;;;;8.52;86.04;98851.47;2079728;28;20048;-64
2022/04/07 00:13:53;;;;;;;4.90;4.40;;;;;;;8.54;85.34;98878.94;2078762;28;45586;-64
2022/04/07 00:14:55;;;;;;;5.43;4.40;;;;;;;8.56;84.98;98853.03;2079147;28;46070;-64
2022/04/07 00:16:00;;;;;;;6.05;4.22;;;;;;;8.60;84.73;98857.31;2078899;28;43317;-65
2022/04/07 00:17:02;;;;;;;5.03;4.20;;;;;;;8.60;85.50;98858.16;2079206;28;44445;-65
2022/04/07 00:18:04;;;;;;;5.45;4.50;;;;;;;8.59;85.31;98855.56;2079210;28;46616;-65
2022/04/07 00:19:06;;;;;;;7.03;4.07;;;;;;;8.59;85.42;98858.22;2069937;28;44127;-65
2022/04/07 00:20:08;;;;;;;4.00;3.63;;;;;;;8.60;85.65;98854.63;2069918;28;44018;-64
2022/04/07 00:21:12;;;;;;;7.00;4.22;;;;;;;8.60;85.75;98847.50;2079158;28;43279;-65
2022/04/07 00:22:14;;;;;;;4.13;3.53;;;;;;;8.64;85.10;98839.34;2078791;28;44248;-65
2022/04/07 00:23:15;;;;;;;5.07;3.90;;;;;;;8.65;84.36;98844.63;2078994;28;44444;-65
2022/04/07 00:24:17;;;;;;;7.75;3.40;;;;;;;8.65;84.81;98841.94;2078935;28;43753;-65
2022/04/07 00:25:19;;;;;;;6.13;3.92;;;;;;;8.64;84.96;98842.03;2070014;28;46005;-65
2022/04/07 00:26:20;;;;;;;4.35;3.25;;;;;;;8.65;84.12;98841.06;2070517;28;40916;-65
2022/04/07 00:27:22;;;;;;;6.10;3.88;;;;;;;8.66;83.98;98838.31;2080243;28;43828;-65
2022/04/07 00:28:24;;;;;;;4.32;3.60;;;;;;;8.68;84.25;98825.78;2072486;28;20097;-64
2022/04/07 00:29:25;;;;;;;4.82;3.40;;;;;;;8.70;84.91;98839.03;2073149;28;20997;-65
2022/04/07 00:30:27;;;;;;;5.88;3.70;;;;;;;8.67;85.17;98831.19;2079294;28;45254;-65
2022/04/07 00:31:38;;;;;;;6.55;3.55;;;;;;;8.65;84.66;98836.63;2080703;28;46144;-65
2022/04/07 00:32:43;;;;;;;6.80;3.20;;;;;;;8.63;85.47;98834.94;2080797;28;35661;-65
2022/04/07 00:33:47;;;;;;;5.55;3.75;;;;;;;8.62;85.43;98839.41;2071500;28;44937;-64
2022/04/07 00:34:54;;;;;;;4.70;3.42;;;;;;;8.62;84.82;98835.91;2071467;28;43305;-65
2022/04/07 00:35:56;;;;;;;4.78;3.22;;;;;;;8.60;84.76;98828.81;2071600;28;44578;-65
2022/04/07 00:36:58;;;;;;;3.83;3.50;;;;;;;8.59;85.22;98827.06;2072451;28;43480;-65
2022/04/07 00:38:01;;;;;;;5.90;3.70;;;;;;;8.61;85.00;98829.69;2080460;28;40945;-65
2022/04/07 00:39:03;;;;;;;5.35;3.90;;;;;;;8.64;85.50;98826.88;2080395;28;46060;-65
2022/04/07 00:40:10;;;;;;;4.28;3.13;;;;;;;8.64;84.82;98823.34;2080231;28;43112;-65
2022/04/07 00:41:11;;;;;;;4.57;3.28;;;;;;;8.62;85.04;98826.09;2080217;28;43958;-64
2022/04/07 00:42:13;;;;;;;4.55;3.30;;;;;;;8.60;85.34;98806.63;2079850;28;43715;-65
2022/04/07 00:43:32;;;;;;;4.30;3.63;;;;;;;8.59;86.18;98818.22;2080637;28;38103;-65
2022/04/07 00:44:34;;;;;;;5.00;3.60;;;;;;;8.56;86.36;98808.59;2071351;28;46325;-65
2022/04/07 00:45:36;;;;;;;7.18;3.70;;;;;;;8.55;86.59;98808.66;2072291;28;44324;-65
2022/04/07 00:46:39;;;;;;;5.82;3.50;;;;;;;8.53;86.77;98811.38;2080223;28;43835;-65
2022/04/07 00:47:42;;;;;;;6.00;3.70;;;;;;;8.51;85.80;98799.94;2080362;28;44024;-64
2022/04/07 00:48:44;;;;;;;5.50;3.70;;;;;;;8.53;85.53;98808.72;2081333;28;20053;-64
2022/04/07 00:49:45;;;;;;;6.45;3.80;;;;;;;8.52;86.00;98798.13;2080391;28;44955;-65
2022/04/07 00:50:50;;;;;;;5.10;3.80;;;;;;;8.51;85.63;98793.75;2080527;28;21001;-65
2022/04/07 00:51:53;;;;;;;4.63;4.13;;;;;;;8.51;86.08;98805.28;2071569;28;44266;-65
2022/04/07 00:52:58;;;;;;;5.43;3.65;;;;;;;8.49;86.08;98803.59;2072366;28;44308;-65
2022/04/07 00:54:00;;;;;;;6.10;3.78;;;;;;;8.47;86.48;98790.38;2071781;28;44185;-65
2022/04/07 00:55:04;;;;;;;7.65;4.60;;;;;;;8.50;86.50;98794.69;2073229;28;20231;-64
2022/04/07 00:56:10;;;;;;;6.60;3.95;;;;;;;8.49;86.80;98792.94;2071589;28;45996;-64
2022/04/07 00:57:11;;;;;;;5.28;4.10;;;;;;;8.49;86.14;98792.94;2071641;28;44958;-65
2022/04/07 00:58:14;;;;;;;5.03;3.85;;;;;;;8.49;86.57;98791.16;2072141;28;34124;-65
2022/04/07 00:59:17;;;;;;;6.22;3.67;;;;;;;8.49;86.88;98776.94;2072485;28;20100;-65
2022/04/07 01:00:20;;;;;;;4.80;3.58;;;;;;;8.49;86.08;98777.81;2070547;28;43236;-65
2022/04/07 01:01:28;;;;;;;5.53;3.80;;;;;;;8.50;86.74;98773.34;2079750;28;45981;-65
2022/04/07 01:02:30;;;;;;;8.25;4.30;;;;;;;8.51;86.28;98775.94;2080248;28;45348;-64
2022/04/07 01:03:31;;;;;;;4.72;3.80;;;;;;;8.52;85.32;98771.44;2080106;28;46795;-65
2022/04/07 01:04:33;;;;;;;6.38;4.05;;;;;;;8.52;86.64;98771.44;2080407;28;44531;-65
2022/04/07 01:05:35;;;;;;;6.50;3.65;;;;;;;8.50;85.96;98774.19;2070970;28;46159;-64
2022/04/07 01:06:37;;;;;;;5.32;4.05;;;;;;;8.51;86.13;98770.59;2072571;28;23616;-65
2022/04/07 01:07:39;;;;;;;4.70;3.85;;;;;;;8.51;86.44;98769.75;2080523;28;43081;-65
2022/04/07 01:08:41;;;;;;;6.00;4.00;;;;;;;8.50;86.57;98757.34;2071777;28;33207;-65
2022/04/07 01:09:43;;;;;;;4.90;4.07;;;;;;;8.50;87.02;98762.66;2071531;28;44673;-64
2022/04/07 01:10:45;;;;;;;4.38;3.95;;;;;;;8.49;85.74;98755.59;2080696;28;28538;-65
2022/04/07 01:11:49;;;;;;;9.80;4.25;;;;;;;8.49;86.44;98761.81;2079609;28;45703;-65
2022/04/07 01:12:50;;;;;;;4.93;3.55;;;;;;;8.50;86.56;98749.34;2071309;28;43342;-65
2022/04/07 01:13:52;;;;;;;5.53;4.07;;;;;;;8.54;85.47;98754.47;2071414;28;46679;-65
2022/04/07 01:14:59;;;;;;;4.40;3.97;;;;;;;8.53;85.75;98755.38;2080690;28;42912;-65
2022/04/07 01:16:01;;;;;;;5.38;4.13;;;;;;;8.56;85.88;98757.00;2080292;28;43342;-64
2022/04/07 01:17:03;;;;;;;4.03;3.55;;;;;;;8.58;86.04;98747.16;2081099;28;20883;-65
2022/04/07 01:18:05;;;;;;;7.32;3.85;;;;;;;8.59;86.42;98748.88;2080930;28;44705;-65
2022/04/07 01:19:06;;;;;;;4.45;4.05;;;;;;;8.57;86.39;98753.44;2080144;28;45287;-65
2022/04/07 01:20:10;;;;;;;7.75;4.20;;;;;;;8.54;87.00;98754.47;2080648;28;36185;-65
2022/04/07 01:21:14;;;;;;;4.80;4.30;;;;;;;8.52;87.00;98752.78;2081182;28;20128;-65
2022/04/07 01:22:19;;;;;;;4.68;4.28;;;;;;;8.48;87.06;98748.56;2072234;28;20055;-65
2022/04/07 01:23:23;;;;;;;6.18;5.10;;;;;;;8.46;88.17;98748.63;2071419;28;43545;-65
2022/04/07 01:24:31;;;;;;;6.53;4.80;;;;;;;8.43;88.11;98739.91;2071318;28;45590;-65
2022/04/07 01:25:33;;;;;;;6.57;5.03;;;;;;;8.37;89.31;98739.25;2072129;28;20939;-65
2022/04/07 01:26:43;;;;;;;5.65;5.05;;;;;;;8.34;90.07;98734.06;2072209;28;44937;-65
2022/04/07 01:27:49;;;;;;;5.90;5.35;;;;;;;8.30;90.23;98729.81;2071992;28;34062;-65
2022/04/07 01:28:53;;;;;;;7.43;5.40;;;;;;;8.27;91.28;98727.28;2071524;28;43307;-65
2022/04/07 01:29:56;;;;;;;6.18;5.57;;;;;;;8.22;90.36;98726.69;2078511;28;44230;-65
2022/04/07 01:30:58;;;;;;;6.65;5.97;;;;;;;8.17;91.02;98716.22;2079531;28;47357;-64
2022/04/07 01:32:08;;;;;;;9.57;6.47;;;;;;;8.15;91.62;98714.59;2080263;28;43709;-64
2022/04/07 01:33:12;;;;;;;8.93;7.25;;;;;;;8.14;92.71;98713.72;2071343;28;46438;-64
2022/04/07 01:34:17;;;;;;;7.88;6.50;;;;;;;8.12;92.49;98718.25;2073001;28;42777;-64
2022/04/07 01:35:21;;;;;;;7.32;6.63;;;;;;;8.09;92.86;98712.22;2070332;28;44260;-64
2022/04/07 01:36:28;;;;;;;8.90;7.28;;;;;;;8.07;92.33;98706.94;2072575;28;33396;-64
2022/04/07 01:37:30;;;;;;;7.72;6.82;;;;;;;8.05;92.87;98699.97;2071883;28;42878;-64
2022/04/07 01:38:32;;;;;;;9.32;7.30;;;;;;;8.03;93.10;98690.25;2070732;28;43821;-64
2022/04/07 01:39:38;;;;;;;10.18;7.15;;;;;;;8.03;92.44;98695.56;2081286;28;20045;-64
2022/04/07 01:40:40;;;;;;;9.43;7.28;;;;;;;8.03;93.18;98692.06;2071087;28;42883;-64
2022/04/07 01:41:43;;;;;;;8.20;7.47;;;;;;;8.02;93.18;98698.31;2071944;28;35136;-65
2022/04/07 01:42:46;;;;;;;8.25;7.45;;;;;;;8.02;92.94;98692.97;2071343;28;44351;-65
2022/04/07 01:43:52;;;;;;;10.10;7.50;;;;;;;8.01;93.47;98678.81;2071625;28;20062;-65
2022/04/07 01:44:59;;;;;;;7.90;7.20;;;;;;;8.01;92.65;98691.28;2072177;28;45922;-65
2022/04/07 01:46:01;;;;;;;7.45;6.75;;;;;;;8.01;92.81;98684.13;2079897;28;46808;-65
2022/04/07 01:47:04;;;;;;;8.43;6.93;;;;;;;8.03;92.25;98678.72;2079917;28;31149;-64
2022/04/07 01:48:08;;;;;;;8.35;6.68;;;;;;;8.06;91.71;98675.03;2071347;28;41995;-65
2022/04/07 01:49:12;;;;;;;6.85;6.07;;;;;;;8.08;91.85;98665.19;2071392;28;44054;-64
2022/04/07 01:50:16;;;;;;;6.40;5.40;;;;;;;8.10;91.68;98673.97;2072380;28;45980;-65
2022/04/07 01:51:18;;;;;;;7.43;5.72;;;;;;;8.12;90.53;98669.44;2070682;28;42874;-64
2022/04/07 01:52:20;;;;;;;6.20;5.57;;;;;;;8.13;91.00;98681.78;2071350;28;46085;-64
2022/04/07 01:53:24;;;;;;;8.60;5.32;;;;;;;8.15;90.53;98666.63;2071018;28;44577;-65
2022/04/07 01:54:26;;;;;;;8.15;5.70;;;;;;;8.17;90.21;98659.41;2071239;28;45302;-64
2022/04/07 01:55:31;;;;;;;5.95;5.30;;;;;;;8.20;89.39;98665.44;2071589;28;45711;-64
2022/04/07 01:56:33;;;;;;;6.10;5.10;;;;;;;8.22;90.21;98668.03;2079954;28;45277;-65
2022/04/07 01:57:35;;;;;;;6.00;4.70;;;;;;;8.24;nan;98658.16;2080746;28;20933;-65
2022/04/07 01:58:37;;;;;;;5.82;4.82;;;;;;;8.26;89.30;98652.75;2071034;28;42148;-65
2022/04/07 01:59:40;;;;;;;5.72;4.95;;;;;;;8.29;88.66;98663.25;2071754;28;43922;-65
2022/04/07 02:00:41;;;;;;;9.00;5.07;;;;;;;8.27;88.92;98654.47;2071127;28;45555;-65
2022/04/07 02:01:43;;;;;;;5.38;4.65;;;;;;;8.28;89.39;98651.72;2071065;28;43041;-65
2022/04/07 02:02:45;;;;;;;6.05;4.75;;;;;;;8.29;88.76;98661.47;2062880;28;45655;-65
2022/04/07 02:03:47;;;;;;;4.53;4.13;;;;;;;8.30;89.29;98657.84;2071790;28;22555;-65
2022/04/07 02:04:56;;;;;;;5.63;4.45;;;;;;;8.29;88.18;98648.13;2079243;28;43972;-65
2022/04/07 02:06:30;;;;;;;7.03;4.70;;;;;;;8.29;88.40;98632.13;2080012;28;44216;-65
2022/04/07 02:07:32;;;;;;;4.38;3.72;;;;;;;8.32;89.04;98641.75;2054360;28;43734;-63
2022/04/07 02:08:34;;;;;;;5.35;4.50;;;;;;;8.31;88.43;98646.25;2072308;28;44038;-65
2022/04/07 02:09:36;;;;;;;6.00;4.10;;;;;;;8.31;88.46;98635.59;2079828;28;44670;-64
2022/04/07 02:10:37;;;;;;;5.53;4.05;;;;;;;8.34;87.76;98646.06;2078945;28;44082;-65
2022/04/07 02:11:41;;;;;;;4.25;3.75;;;;;;;8.35;87.07;98642.47;2079415;28;45136;-64
2022/04/07 02:12:43;;;;;;;4.10;3.38;;;;;;;8.40;87.10;98637.78;2079783;28;43510;-64
2022/04/07 02:13:45;;;;;;;5.43;3.55;;;;;;;8.41;86.66;98638.63;2070814;28;44189;-65
2022/04/07 02:14:50;;;;;;;5.43;3.35;;;;;;;8.40;86.92;98632.44;2071841;28;23910;-65
2022/04/07 02:15:52;;;;;;;4.40;3.50;;;;;;;8.39;87.74;98633.38;2079278;28;44979;-65
2022/04/07 02:16:53;;;;;;;4.32;3.80;;;;;;;8.37;88.06;98624.59;2079451;28;45077;-65
2022/04/07 02:17:55;;;;;;;4.03;3.50;;;;;;;8.37;88.22;98629.06;2080475;28;20053;-65
2022/04/07 02:18:57;;;;;;;5.97;3.58;;;;;;;8.37;87.21;98618.41;2079944;28;45493;-65
2022/04/07 02:20:01;;;;;;;7.35;3.85;;;;;;;8.37;88.25;98621.06;2071145;28;45656;-65
2022/04/07 02:21:04;;;;;;;4.75;3.53;;;;;;;8.33;88.91;98625.69;2071190;28;45050;-65
2022/04/07 02:22:08;;;;;;;4.13;3.38;;;;;;;8.33;88.22;98620.38;2070748;28;44307;-65
2022/04/07 02:23:09;;;;;;;4.63;3.50;;;;;;;8.32;88.09;98621.28;2063885;28;44352;-65
2022/04/07 02:24:11;;;;;;;6.00;3.78;;;;;;;8.31;88.73;98614.25;2070890;28;45368;-65
2022/04/07 02:25:13;;;;;;;4.88;3.95;;;;;;;8.30;88.74;98619.66;2079475;28;46260;-64
2022/04/07 02:26:17;;;;;;;5.00;3.63;;;;;;;8.29;88.38;98612.59;2079631;28;40481;-64
2022/04/07 02:27:18;;;;;;;6.55;4.18;;;;;;;8.27;89.63;98623.31;2079394;28;45149;-64
2022/04/07 02:28:21;;;;;;;4.28;3.75;;;;;;;8.25;89.05;98617.22;2079650;28;44291;-64
2022/04/07 02:29:22;;;;;;;6.03;4.03;;;;;;;8.24;90.06;98607.50;2080065;28;43892;-64
2022/04/07 02:30:26;;;;;;;4.00;3.60;;;;;;;8.28;88.94;98613.53;2079295;28;44786;-65
2022/04/07 02:31:28;;;;;;;5.65;4.00;;;;;;;8.28;88.88;98613.53;2079410;28;43117;-65
2022/04/07 02:32:29;;;;;;;5.32;4.18;;;;;;;8.29;89.03;98613.47;2079668;28;45465;-65
2022/04/07 02:33:32;;;;;;;4.63;3.70;;;;;;;8.28;89.20;98603.72;2079414;28;45985;-65
2022/04/07 02:34:33;;;;;;;5.55;3.80;;;;;;;8.29;88.96;98594.81;2079776;28;43720;-64
2022/04/07 02:35:35;;;;;;;6.90;3.38;;;;;;;8.31;88.01;98608.03;2079392;28;44771;-65
2022/04/07 02:36:37;;;;;;;5.47;3.40;;;;;;;8.33;88.42;98598.19;2079567;28;39345;-65
2022/04/07 02:37:45;;;;;;;4.45;3.30;;;;;;;8.32;87.82;98597.28;2079440;28;44090;-64
2022/04/07 02:38:49;;;;;;;4.13;3.55;;;;;;;8.32;87.88;98591.97;2079863;28;36086;-64
2022/04/07 02:39:54;;;;;;;5.60;3.80;;;;;;;8.29;88.83;98588.59;2080280;28;35618;-64
2022/04/07 02:40:56;;;;;;;4.28;3.15;;;;;;;8.29;88.95;98593.94;2079922;28;46502;-64
2022/04/07 02:41:58;;;;;;;6.07;3.83;;;;;;;8.27;89.50;98583.34;2079610;28;44318;-64
2022/04/07 02:43:00;;;;;;;6.90;4.10;;;;;;;8.25;89.27;98589.69;2079944;28;35843;-64
2022/04/07 02:44:02;;;;;;;6.00;4.00;;;;;;;8.24;89.13;98580.84;2079538;28;45902;-64
2022/04/07 02:45:05;;;;;;;4.53;3.67;;;;;;;8.21;89.63;98584.50;2079711;28;45652;-64
2022/04/07 02:46:06;;;;;;;5.50;3.20;;;;;;;8.19;89.63;98573.06;2079433;28;43866;-64
2022/04/07 02:47:11;;;;;;;4.97;3.30;;;;;;;8.17;90.27;98580.28;2079392;28;46082;-65
2022/04/07 02:48:12;;;;;;;4.05;3.53;;;;;;;8.17;89.99;98576.78;2079720;28;42002;-65
2022/04/07 02:49:14;;;;;;;4.72;3.67;;;;;;;8.15;90.12;98570.66;2079293;28;44793;-65
2022/04/07 02:50:18;;;;;;;4.38;3.40;;;;;;;8.14;89.66;98564.44;2079461;28;43064;-64
2022/04/07 02:51:20;;;;;;;5.03;3.65;;;;;;;8.13;89.01;98561.84;2079583;28;45711;-64
2022/04/07 02:52:24;;;;;;;4.85;3.42;;;;;;;8.09;89.79;98576.28;2079731;28;20123;-64
2022/04/07 02:53:26;;;;;;;3.83;3.38;;;;;;;8.09;89.52;98577.16;2080099;28;30269;-64
2022/04/07 02:54:27;;;;;;;4.30;3.35;;;;;;;8.09;89.09;98571.81;2079866;28;44942;-64
2022/04/07 02:55:31;;;;;;;4.13;3.40;;;;;;;8.11;89.56;98567.28;2070676;28;43291;-64
2022/04/07 02:56:33;;;;;;;5.15;3.50;;;;;;;8.12;89.04;98563.66;2070165;28;44341;-64
2022/04/07 02:57:35;;;;;;;5.35;3.60;;;;;;;8.10;88.87;98556.72;2071235;28;44309;-64
2022/04/07 02:58:37;;;;;;;5.30;3.60;;;;;;;8.11;89.00;98564.63;2071027;28;44863;-64
2022/04/07 02:59:39;;;;;;;4.28;3.22;;;;;;;8.12;89.42;98560.16;2070941;28;45150;-64
2022/04/07 03:00:40;;;;;;;4.57;3.38;;;;;;;8.11;88.77;98553.09;2079083;28;43596;-64
2022/04/07 03:01:43;;;;;;;5.50;3.58;;;;;;;8.11;88.76;98550.41;2079279;28;43950;-64
2022/04/07 03:02:45;;;;;;;3.50;3.20;;;;;;;8.11;88.75;98547.75;2079384;28;45923;-64
2022/04/07 03:03:55;;;;;;;7.00;3.47;;;;;;;8.11;89.45;98545.97;2079554;28;44293;-64
2022/04/07 03:04:57;;;;;;;6.28;3.15;;;;;;;8.11;89.32;98545.09;2079491;28;45138;-64
2022/04/07 03:05:58;;;;;;;3.75;2.65;;;;;;;8.12;89.40;98544.16;2079603;28;42925;-64
2022/04/07 03:07:00;;;;;;;4.65;3.10;;;;;;;8.11;88.70;98542.41;2070712;28;43026;-64
2022/04/07 03:08:01;;;;;;;5.57;3.13;;;;;;;8.10;87.92;98538.91;2071505;28;27013;-64
2022/04/07 03:09:03;;;;;;;4.15;2.83;;;;;;;8.11;87.96;98539.75;2079371;28;44527;-64
2022/04/07 03:10:05;;;;;;;6.10;3.35;;;;;;;8.12;88.10;98546.81;2080531;28;26850;-64
2022/04/07 03:11:09;;;;;;;3.40;3.05;;;;;;;8.12;88.58;98533.50;2079406;28;44285;-65
2022/04/07 03:12:11;;;;;;;3.50;2.80;;;;;;;8.12;88.53;98536.16;2079047;28;45251;-64
2022/04/07 03:13:13;;;;;;;3.80;2.70;;;;;;;8.10;88.54;98535.38;2079483;28;45254;-64
2022/04/07 03:14:15;;;;;;;3.22;2.85;;;;;;;8.10;88.06;98532.72;2079549;28;44332;-64
2022/04/07 03:15:18;;;;;;;7.95;3.45;;;;;;;8.07;88.97;98525.72;2079317;28;45860;-64
2022/04/07 03:16:20;;;;;;;6.15;2.78;;;;;;;8.06;88.57;98520.47;2079241;28;44286;-65
2022/04/07 03:17:22;;;;;;;4.63;2.70;;;;;;;8.07;87.49;98515.06;2079222;28;45409;-64
2022/04/07 03:18:23;;;;;;;4.20;3.03;;;;;;;8.09;87.79;98510.50;2079576;28;34863;-64
2022/04/07 03:19:25;;;;;;;3.20;2.70;;;;;;;8.08;87.66;98511.47;2080001;28;20038;-64
2022/04/07 03:20:27;;;;;;;4.97;2.60;;;;;;;8.09;87.80;98520.31;2062423;28;45248;-64
2022/04/07 03:21:28;;;;;;;4.47;2.65;;;;;;;8.07;88.22;98515.06;2063268;28;32572;-64
2022/04/07 03:22:30;;;;;;;5.63;2.80;;;;;;;8.08;87.68;98507.97;2079186;28;44254;-64
2022/04/07 03:23:32;;;;;;;5.07;2.40;;;;;;;8.07;87.99;98520.41;2079667;28;35107;-64
2022/04/07 03:24:33;;;;;;;5.35;3.15;;;;;;;8.08;87.97;98516.81;2079604;28;44600;-64
2022/04/07 03:25:40;;;;;;;4.18;3.05;;;;;;;8.08;88.25;98505.28;2079260;28;43433;-65
2022/04/07 03:26:42;;;;;;;4.13;2.33;;;;;;;8.15;87.85;98510.22;2079302;28;44830;-64
2022/04/07 03:27:45;;;;;;;4.40;2.42;;;;;;;8.18;86.59;98517.19;2070768;28;45175;-64
2022/04/07 03:28:49;;;;;;;3.80;2.45;;;;;;;8.16;87.19;98516.41;2071158;28;46344;-65
2022/04/07 03:29:51;;;;;;;2.95;2.53;;;;;;;8.18;86.92;98509.19;2079856;28;43291;-65
2022/04/07 03:30:56;;;;;;;4.38;2.78;;;;;;;8.17;86.29;98507.47;2080210;28;20058;-64
2022/04/07 03:31:57;;;;;;;4.03;2.65;;;;;;;8.16;86.70;98506.59;2079013;28;30024;-65
2022/04/07 03:32:59;;;;;;;4.57;2.35;;;;;;;8.16;87.50;98508.41;2079150;28;43047;-65
2022/04/07 03:34:03;;;;;;;3.08;2.13;;;;;;;8.13;87.48;98504.09;2070632;28;43060;-64
2022/04/07 03:35:08;;;;;;;4.57;2.55;;;;;;;8.11;87.04;98505.13;2071606;28;26646;-65
2022/04/07 03:36:13;;;;;;;5.78;2.55;;;;;;;8.11;87.96;98499.78;2079335;28;45243;-65
2022/04/07 03:37:14;;;;;;;5.30;2.60;;;;;;;8.11;87.86;98486.47;2078855;28;44749;-65
2022/04/07 03:38:16;;;;;;;5.25;2.95;;;;;;;8.10;87.48;98503.41;2079474;28;44480;-65
2022/04/07 03:39:18;;;;;;;6.72;2.90;;;;;;;8.09;87.07;98491.88;2079477;28;44129;-64
2022/04/07 03:40:19;;;;;;;3.78;2.55;;;;;;;8.11;87.15;98497.13;2078966;28;43482;-64
2022/04/07 03:41:21;;;;;;;5.00;2.85;;;;;;;8.12;87.67;98493.53;2079026;28;45380;-64
2022/04/07 03:42:23;;;;;;;5.50;2.80;;;;;;;8.12;87.73;98485.53;2079132;28;44802;-64
2022/04/07 03:43:24;;;;;;;5.75;2.60;;;;;;;8.10;87.71;98488.28;2078318;28;43116;-65
2022/04/07 03:44:26;;;;;;;5.90;2.90;;;;;;;8.12;87.91;98496.19;2079308;28;44040;-65
2022/04/07 03:45:29;;;;;;;4.07;2.63;;;;;;;8.11;88.00;98491.78;2078929;28;44403;-65
2022/04/07 03:46:31;;;;;;;5.45;2.60;;;;;;;8.10;86.97;98484.75;2079404;28;38643;-64
2022/04/07 03:47:33;;;;;;;7.30;3.40;;;;;;;8.09;87.91;98488.34;2079214;28;44998;-65
2022/04/07 03:48:36;;;;;;;6.68;3.08;;;;;;;8.10;87.68;98482.94;2080538;28;20068;-65
2022/04/07 03:49:39;;;;;;;5.00;3.10;;;;;;;8.09;87.94;98467.88;2078473;28;44277;-64
2022/04/07 03:50:41;;;;;;;5.82;2.72;;;;;;;8.10;87.17;98469.63;2079299;28;45153;-65
2022/04/07 03:51:43;;;;;;;6.78;3.20;;;;;;;8.11;87.17;98457.16;2079305;28;45060;-65
2022/04/07 03:52:44;;;;;;;7.75;3.53;;;;;;;8.11;87.55;98467.81;2079370;28;32979;-64
2022/04/07 03:53:46;;;;;;;3.45;2.80;;;;;;;8.07;88.07;98467.09;2079289;28;43316;-64
2022/04/07 03:54:48;;;;;;;5.22;3.53;;;;;;;8.08;87.09;98462.66;2079248;28;42943;-64
2022/04/07 03:55:49;;;;;;;7.65;3.42;;;;;;;8.10;87.94;98463.44;2079098;28;46429;-65
2022/04/07 03:56:51;;;;;;;5.13;3.17;;;;;;;8.09;87.31;98467.03;2078819;28;42918;-64
2022/04/07 03:57:53;;;;;;;7.82;3.63;;;;;;;8.08;87.43;98452.84;2079768;28;32760;-64
2022/04/07 03:58:55;;;;;;;6.03;3.25;;;;;;;8.09;87.86;98459.03;2079149;28;44819;-64
2022/04/07 03:59:57;;;;;;;5.10;3.20;;;;;;;8.10;87.77;98447.44;2079152;28;45048;-64
2022/04/07 04:00:59;;;;;;;8.25;3.20;;;;;;;8.11;87.75;98457.16;2070345;28;46444;-64
2022/04/07 04:02:01;;;;;;;7.57;3.00;;;;;;;8.12;87.45;98440.22;2069287;28;45013;-64
2022/04/07 04:03:03;;;;;;;7.53;3.22;;;;;;;8.11;87.41;98442.03;2079730;28;20049;-65
2022/04/07 04:04:05;;;;;;;7.18;2.95;;;;;;;8.12;87.39;98434.88;2079003;28;39949;-65
2022/04/07 04:05:07;;;;;;;6.85;2.83;;;;;;;8.13;87.95;98436.59;2078905;28;42847;-65
2022/04/07 04:06:09;;;;;;;5.18;2.22;;;;;;;8.15;87.46;98435.59;2079580;28;20235;-64
2022/04/07 04:07:11;;;;;;;5.93;2.70;;;;;;;8.16;87.38;98433.78;2078838;28;37996;-64
2022/04/07 04:08:14;;;;;;;5.82;2.42;;;;;;;8.15;87.88;98437.41;2070065;28;44149;-64
2022/04/07 04:09:16;;;;;;;6.72;2.88;;;;;;;8.11;87.74;98425.16;2070874;28;45873;-64
2022/04/07 04:10:18;;;;;;;5.80;2.60;;;;;;;8.10;88.23;98437.63;2079377;28;43878;-64
2022/04/07 04:11:19;;;;;;;4.57;2.20;;;;;;;8.06;88.63;98438.75;2070150;28;44231;-64
2022/04/07 04:12:21;;;;;;;6.82;2.30;;;;;;;8.05;89.04;98428.16;2069840;28;44314;-64
2022/04/07 04:13:25;;;;;;;5.63;2.65;;;;;;;8.01;89.28;98419.47;2078977;28;45363;-65
2022/04/07 04:14:27;;;;;;;4.45;2.42;;;;;;;7.99;90.04;98429.34;2079130;28;45351;-63
2022/04/07 04:15:29;;;;;;;9.18;2.92;;;;;;;7.97;90.07;98417.94;2078360;28;42446;-64
2022/04/07 04:16:30;;;;;;;3.65;2.00;;;;;;;7.95;90.20;98410.00;2078437;28;45283;-64
2022/04/07 04:17:33;;;;;;;4.40;2.30;;;;;;;7.94;89.71;98404.75;2078025;28;43555;-64
2022/04/07 04:18:35;;;;;;;6.07;1.83;;;;;;;7.94;89.03;98408.28;2070184;28;40268;-64
2022/04/07 04:19:37;;;;;;;5.20;1.90;;;;;;;7.93;89.55;98398.56;2070543;28;47389;-65
2022/04/07 04:20:39;;;;;;;6.28;2.30;;;;;;;7.92;89.26;98388.84;2070026;28;42300;-64
2022/04/07 04:21:41;;;;;;;3.10;1.85;;;;;;;7.92;89.71;98383.53;2070045;28;44987;-64
2022/04/07 04:22:43;;;;;;;3.90;1.55;;;;;;;7.92;90.06;98394.19;2079631;28;20042;-64
2022/04/07 04:23:44;;;;;;;3.10;1.23;;;;;;;7.93;89.43;98379.94;2078963;28;45092;-64
2022/04/07 04:24:46;;;;;;;4.78;1.67;;;;;;;7.91;89.43;98380.94;2078811;28;46136;-64
2022/04/07 04:25:48;;;;;;;5.30;1.90;;;;;;;7.89;89.45;98389.00;2078903;28;44310;-64
2022/04/07 04:26:50;;;;;;;3.55;1.67;;;;;;;7.88;89.88;98391.75;2080132;28;20119;-64
2022/04/07 04:27:51;;;;;;;4.43;1.65;;;;;;;7.86;90.03;98381.19;2078877;28;45628;-64
2022/04/07 04:28:55;;;;;;;3.88;1.60;;;;;;;7.85;90.31;98387.44;2079058;28;44906;-64
2022/04/07 04:29:57;;;;;;;3.55;1.70;;;;;;;7.83;90.98;98371.53;2079012;28;43961;-64
2022/04/07 04:30:59;;;;;;;2.38;1.42;;;;;;;7.82;90.22;98376.94;2079192;28;42415;-64
2022/04/07 04:32:00;;;;;;;3.75;1.17;;;;;;;7.82;90.82;98379.63;2079057;28;44424;-64
2022/04/07 04:33:03;;;;;;;4.10;1.45;;;;;;;7.80;90.92;98373.50;2079828;28;20168;-64
2022/04/07 04:34:04;;;;;;;6.28;1.50;;;;;;;7.80;90.48;98366.38;2079190;28;28453;-64
2022/04/07 04:35:08;;;;;;;4.88;1.20;;;;;;;7.80;90.29;98374.38;2074618;28;45182;-64
2022/04/07 04:36:10;;;;;;;3.58;1.70;;;;;;;7.79;90.49;98366.47;2078982;28;43032;-64
2022/04/07 04:37:13;;;;;;;4.32;1.40;;;;;;;7.79;90.76;98361.16;2078903;28;44256;-64
2022/04/07 04:38:15;;;;;;;5.00;1.60;;;;;;;7.78;90.75;98362.94;2078541;28;47157;-64
2022/04/07 04:39:17;;;;;;;3.35;1.30;;;;;;;7.76;90.78;98361.31;2078252;28;42962;-63
2022/04/07 04:40:18;;;;;;;5.88;1.42;;;;;;;7.75;90.48;98349.81;2079263;28;36451;-64
2022/04/07 04:41:20;;;;;;;4.85;1.75;;;;;;;7.76;91.34;98361.31;2078327;28;45680;-64
2022/04/07 04:42:22;;;;;;;6.47;1.80;;;;;;;7.75;90.27;98352.47;2079116;28;43748;-64
2022/04/07 04:43:23;;;;;;;4.40;1.60;;;;;;;7.74;91.45;98357.88;2079022;28;39796;-64
2022/04/07 04:44:25;;;;;;;4.00;1.77;;;;;;;7.70;91.04;98351.84;2078833;28;42007;-63
2022/04/07 04:45:27;;;;;;;6.15;1.67;;;;;;;7.71;91.53;98336.72;2078984;28;45229;-64
2022/04/07 04:46:28;;;;;;;4.70;1.80;;;;;;;7.70;90.75;98346.53;2079145;28;36894;-64
2022/04/07 04:47:30;;;;;;;7.13;2.05;;;;;;;7.70;90.94;98334.97;2079136;28;44287;-64
2022/04/07 04:48:32;;;;;;;2.97;1.48;;;;;;;7.69;90.95;98333.28;2078988;28;45328;-64
2022/04/07 04:49:34;;;;;;;6.47;1.58;;;;;;;7.72;90.63;98338.44;2078873;28;44352;-64
2022/04/07 04:50:35;;;;;;;5.07;1.60;;;;;;;7.71;90.61;98336.72;2078548;28;43895;-64
2022/04/07 04:51:37;;;;;;;5.22;1.67;;;;;;;7.71;91.04;98326.91;2079037;28;45959;-64
2022/04/07 04:52:40;;;;;;;4.78;1.80;;;;;;;7.69;91.44;98330.63;2078604;28;43781;-64
2022/04/07 04:53:42;;;;;;;5.05;1.75;;;;;;;7.71;90.92;98326.06;2078960;28;43833;-64
2022/04/07 04:54:43;;;;;;;5.10;1.75;;;;;;;7.74;90.72;98337.41;2078891;28;44296;-63
2022/04/07 04:55:45;;;;;;;6.22;2.20;;;;;;;7.74;90.33;98328.56;2078614;28;45163;-63
2022/04/07 04:56:47;;;;;;;4.80;1.60;;;;;;;7.72;90.41;98333.13;2079138;28;44477;-63
2022/04/07 04:57:51;;;;;;;2.92;1.80;;;;;;;7.71;90.27;98324.25;2080076;28;20242;-64
2022/04/07 04:58:54;;;;;;;4.72;1.75;;;;;;;7.72;91.22;98338.44;2078395;28;45279;-64